sensor_id;sensor_type;location;lat;lon;timestamp;P1;durP1;ratioP1;P2;durP2;ratioP2
40867;SDS011;26586;50.708;22.412;2023-12-29T00:02:03;26.65;;;22.17;;
40867;SDS011;26586;50.708;22.412;2023-12-29T00:04:29;24.17;;;21.47;;
40867;SDS011;26586;50.708;22.412;2023-12-29T00:06:55;20.55;;;17.88;;
40867;SDS011;26586;50.708;22.412;2023-12-29T00:09:22;19.63;;;17.07;;
40867;SDS011;26586;50.708;22.412;2023-12-29T00:11:49;17.65;;;15.75;;
40867;SDS011;26586;50.708;22.412;2023-12-29T00:14:16;16.13;;;13.98;;
40867;SDS011;26586;50.708;22.412;2023-12-29T00:16:43;15.90;;;14.30;;
40867;SDS011;26586;50.708;22.412;2023-12-29T00:19:10;17.48;;;14.88;;
40867;SDS011;26586;50.708;22.412;2023-12-29T00:21:36;13.98;;;12.48;;
40867;SDS011;26586;50.708;22.412;2023-12-29T00:24:06;14.35;;;12.27;;
40867;SDS011;26586;50.708;22.412;2023-12-29T00:26:32;14.38;;;12.40;;
40867;SDS011;26586;50.708;22.412;2023-12-29T00:28:58;12.82;;;11.52;;
40867;SDS011;26586;50.708;22.412;2023-12-29T00:31:24;15.75;;;13.40;;
40867;SDS011;26586;50.708;22.412;2023-12-29T00:33:51;18.20;;;14.93;;
40867;SDS011;26586;50.708;22.412;2023-12-29T00:36:18;23.58;;;17.35;;
40867;SDS011;26586;50.708;22.412;2023-12-29T00:38:46;23.00;;;15.98;;
40867;SDS011;26586;50.708;22.412;2023-12-29T00:41:12;25.13;;;18.95;;
40867;SDS011;26586;50.708;22.412;2023-12-29T00:43:38;24.27;;;18.77;;
40867;SDS011;26586;50.708;22.412;2023-12-29T00:46:04;21.15;;;15.85;;
40867;SDS011;26586;50.708;22.412;2023-12-29T00:48:31;18.52;;;15.18;;
40867;SDS011;26586;50.708;22.412;2023-12-29T00:50:57;16.42;;;13.77;;
40867;SDS011;26586;50.708;22.412;2023-12-29T00:53:26;15.15;;;13.10;;
40867;SDS011;26586;50.708;22.412;2023-12-29T00:55:52;13.47;;;12.07;;
40867;SDS011;26586;50.708;22.412;2023-12-29T00:58:18;16.98;;;14.45;;
40867;SDS011;26586;50.708;22.412;2023-12-29T01:00:44;23.02;;;16.92;;
40867;SDS011;26586;50.708;22.412;2023-12-29T01:03:11;24.42;;;18.27;;
40867;SDS011;26586;50.708;22.412;2023-12-29T01:05:37;20.13;;;17.02;;
40867;SDS011;26586;50.708;22.412;2023-12-29T01:08:03;20.93;;;16.37;;
40867;SDS011;26586;50.708;22.412;2023-12-29T01:10:29;19.97;;;16.87;;
40867;SDS011;26586;50.708;22.412;2023-12-29T01:12:56;19.37;;;15.23;;
40867;SDS011;26586;50.708;22.412;2023-12-29T01:15:22;17.50;;;14.23;;
40867;SDS011;26586;50.708;22.412;2023-12-29T01:17:48;17.07;;;14.50;;
40867;SDS011;26586;50.708;22.412;2023-12-29T01:20:14;16.98;;;14.43;;
40867;SDS011;26586;50.708;22.412;2023-12-29T01:22:41;17.80;;;15.15;;
40867;SDS011;26586;50.708;22.412;2023-12-29T01:25:07;20.17;;;15.70;;
40867;SDS011;26586;50.708;22.412;2023-12-29T01:27:33;18.25;;;15.55;;
40867;SDS011;26586;50.708;22.412;2023-12-29T01:29:59;19.23;;;15.93;;
40867;SDS011;26586;50.708;22.412;2023-12-29T01:32:26;17.23;;;14.40;;
40867;SDS011;26586;50.708;22.412;2023-12-29T01:34:52;20.27;;;16.55;;
40867;SDS011;26586;50.708;22.412;2023-12-29T01:37:18;20.25;;;16.92;;
40867;SDS011;26586;50.708;22.412;2023-12-29T01:39:44;20.70;;;17.58;;
40867;SDS011;26586;50.708;22.412;2023-12-29T01:42:11;22.60;;;18.30;;
40867;SDS011;26586;50.708;22.412;2023-12-29T01:44:37;22.55;;;17.92;;
40867;SDS011;26586;50.708;22.412;2023-12-29T01:47:04;23.45;;;18.45;;
40867;SDS011;26586;50.708;22.412;2023-12-29T01:49:35;21.30;;;17.77;;
40867;SDS011;26586;50.708;22.412;2023-12-29T01:52:03;25.35;;;17.98;;
40867;SDS011;26586;50.708;22.412;2023-12-29T01:54:31;23.60;;;19.90;;
40867;SDS011;26586;50.708;22.412;2023-12-29T01:57:02;27.38;;;20.77;;
40867;SDS011;26586;50.708;22.412;2023-12-29T01:59:28;29.10;;;21.10;;
40867;SDS011;26586;50.708;22.412;2023-12-29T02:01:55;29.48;;;21.33;;
40867;SDS011;26586;50.708;22.412;2023-12-29T02:04:23;27.52;;;20.92;;
40867;SDS011;26586;50.708;22.412;2023-12-29T02:06:50;28.83;;;20.60;;
40867;SDS011;26586;50.708;22.412;2023-12-29T02:09:17;23.35;;;18.58;;
40867;SDS011;26586;50.708;22.412;2023-12-29T02:11:44;23.92;;;19.20;;
40867;SDS011;26586;50.708;22.412;2023-12-29T02:14:11;27.23;;;19.33;;
40867;SDS011;26586;50.708;22.412;2023-12-29T02:16:54;23.10;;;17.23;;
40867;SDS011;26586;50.708;22.412;2023-12-29T02:19:31;24.60;;;18.02;;
40867;SDS011;26586;50.708;22.412;2023-12-29T02:22:06;22.45;;;17.30;;
40867;SDS011;26586;50.708;22.412;2023-12-29T02:24:34;21.98;;;16.20;;
40867;SDS011;26586;50.708;22.412;2023-12-29T02:32:36;20.98;;;16.85;;
40867;SDS011;26586;50.708;22.412;2023-12-29T02:35:06;21.15;;;16.80;;
40867;SDS011;26586;50.708;22.412;2023-12-29T02:37:37;20.75;;;17.52;;
40867;SDS011;26586;50.708;22.412;2023-12-29T02:40:05;23.27;;;18.10;;
40867;SDS011;26586;50.708;22.412;2023-12-29T02:42:35;22.65;;;19.27;;
40867;SDS011;26586;50.708;22.412;2023-12-29T02:45:01;21.42;;;18.67;;
40867;SDS011;26586;50.708;22.412;2023-12-29T02:47:28;20.70;;;18.15;;
40867;SDS011;26586;50.708;22.412;2023-12-29T02:49:54;21.87;;;18.53;;
40867;SDS011;26586;50.708;22.412;2023-12-29T02:52:21;21.20;;;17.60;;
40867;SDS011;26586;50.708;22.412;2023-12-29T02:54:47;19.70;;;16.42;;
40867;SDS011;26586;50.708;22.412;2023-12-29T02:57:13;17.63;;;15.43;;
40867;SDS011;26586;50.708;22.412;2023-12-29T02:59:39;18.38;;;15.43;;
40867;SDS011;26586;50.708;22.412;2023-12-29T03:02:05;19.73;;;16.17;;
40867;SDS011;26586;50.708;22.412;2023-12-29T03:04:31;18.60;;;15.60;;
40867;SDS011;26586;50.708;22.412;2023-12-29T03:06:58;18.87;;;16.00;;
40867;SDS011;26586;50.708;22.412;2023-12-29T03:09:24;19.38;;;16.23;;
40867;SDS011;26586;50.708;22.412;2023-12-29T03:11:50;18.38;;;16.45;;
40867;SDS011;26586;50.708;22.412;2023-12-29T03:14:16;18.20;;;16.17;;
40867;SDS011;26586;50.708;22.412;2023-12-29T03:16:42;20.97;;;16.40;;
40867;SDS011;26586;50.708;22.412;2023-12-29T03:19:09;21.48;;;17.80;;
40867;SDS011;26586;50.708;22.412;2023-12-29T03:21:35;17.58;;;15.68;;
40867;SDS011;26586;50.708;22.412;2023-12-29T03:24:01;19.90;;;17.00;;
40867;SDS011;26586;50.708;22.412;2023-12-29T03:26:27;19.85;;;17.60;;
40867;SDS011;26586;50.708;22.412;2023-12-29T03:28:54;18.00;;;15.85;;
40867;SDS011;26586;50.708;22.412;2023-12-29T03:31:20;16.98;;;15.15;;
40867;SDS011;26586;50.708;22.412;2023-12-29T03:33:47;16.08;;;14.38;;
40867;SDS011;26586;50.708;22.412;2023-12-29T03:36:14;13.07;;;11.50;;
40867;SDS011;26586;50.708;22.412;2023-12-29T03:38:40;12.15;;;10.75;;
40867;SDS011;26586;50.708;22.412;2023-12-29T03:43:33;11.10;;;9.87;;
40867;SDS011;26586;50.708;22.412;2023-12-29T03:45:59;11.90;;;9.53;;
40867;SDS011;26586;50.708;22.412;2023-12-29T03:48:25;11.27;;;9.80;;
40867;SDS011;26586;50.708;22.412;2023-12-29T03:50:51;10.77;;;9.57;;
40867;SDS011;26586;50.708;22.412;2023-12-29T03:53:18;11.23;;;10.00;;
40867;SDS011;26586;50.708;22.412;2023-12-29T03:55:44;10.70;;;9.25;;
40867;SDS011;26586;50.708;22.412;2023-12-29T03:58:10;9.82;;;8.82;;
40867;SDS011;26586;50.708;22.412;2023-12-29T04:00:37;9.70;;;8.70;;
40867;SDS011;26586;50.708;22.412;2023-12-29T04:03:06;10.15;;;8.88;;
40867;SDS011;26586;50.708;22.412;2023-12-29T04:05:33;7.93;;;7.10;;
40867;SDS011;26586;50.708;22.412;2023-12-29T04:07:59;7.75;;;6.93;;
40867;SDS011;26586;50.708;22.412;2023-12-29T04:10:25;7.73;;;6.93;;
40867;SDS011;26586;50.708;22.412;2023-12-29T04:12:51;6.97;;;6.28;;
40867;SDS011;26586;50.708;22.412;2023-12-29T04:15:17;7.70;;;6.90;;
40867;SDS011;26586;50.708;22.412;2023-12-29T04:17:43;7.65;;;6.07;;
40867;SDS011;26586;50.708;22.412;2023-12-29T04:20:10;7.63;;;6.80;;
40867;SDS011;26586;50.708;22.412;2023-12-29T04:22:36;7.47;;;6.40;;
40867;SDS011;26586;50.708;22.412;2023-12-29T04:25:02;7.97;;;6.80;;
40867;SDS011;26586;50.708;22.412;2023-12-29T04:27:29;9.60;;;8.60;;
40867;SDS011;26586;50.708;22.412;2023-12-29T04:29:55;10.50;;;9.50;;
40867;SDS011;26586;50.708;22.412;2023-12-29T04:32:21;11.60;;;10.40;;
40867;SDS011;26586;50.708;22.412;2023-12-29T04:34:47;11.60;;;9.97;;
40867;SDS011;26586;50.708;22.412;2023-12-29T04:37:13;11.93;;;10.27;;
40867;SDS011;26586;50.708;22.412;2023-12-29T04:39:40;14.37;;;10.53;;
40867;SDS011;26586;50.708;22.412;2023-12-29T04:42:06;14.85;;;10.63;;
40867;SDS011;26586;50.708;22.412;2023-12-29T04:44:33;13.55;;;9.57;;
40867;SDS011;26586;50.708;22.412;2023-12-29T04:46:59;13.00;;;9.65;;
40867;SDS011;26586;50.708;22.412;2023-12-29T04:49:25;13.85;;;9.20;;
40867;SDS011;26586;50.708;22.412;2023-12-29T04:51:51;13.05;;;8.82;;
40867;SDS011;26586;50.708;22.412;2023-12-29T04:54:18;11.98;;;7.82;;
40867;SDS011;26586;50.708;22.412;2023-12-29T04:56:44;11.77;;;8.02;;
40867;SDS011;26586;50.708;22.412;2023-12-29T04:59:10;11.63;;;8.20;;
40867;SDS011;26586;50.708;22.412;2023-12-29T05:01:36;13.32;;;8.43;;
40867;SDS011;26586;50.708;22.412;2023-12-29T05:04:03;10.75;;;9.10;;
40867;SDS011;26586;50.708;22.412;2023-12-29T05:06:29;12.02;;;10.38;;
40867;SDS011;26586;50.708;22.412;2023-12-29T05:08:55;12.30;;;10.50;;
40867;SDS011;26586;50.708;22.412;2023-12-29T05:11:21;10.43;;;9.30;;
40867;SDS011;26586;50.708;22.412;2023-12-29T05:13:47;9.70;;;8.70;;
40867;SDS011;26586;50.708;22.412;2023-12-29T05:16:13;9.02;;;7.95;;
40867;SDS011;26586;50.708;22.412;2023-12-29T05:18:40;9.00;;;7.35;;
40867;SDS011;26586;50.708;22.412;2023-12-29T05:21:13;7.50;;;6.68;;
40867;SDS011;26586;50.708;22.412;2023-12-29T05:23:40;7.03;;;6.32;;
40867;SDS011;26586;50.708;22.412;2023-12-29T05:26:06;7.55;;;6.57;;
40867;SDS011;26586;50.708;22.412;2023-12-29T05:28:33;7.73;;;6.83;;
40867;SDS011;26586;50.708;22.412;2023-12-29T05:30:59;8.60;;;7.70;;
40867;SDS011;26586;50.708;22.412;2023-12-29T05:33:32;19.13;;;17.40;;
40867;SDS011;26586;50.708;22.412;2023-12-29T05:35:58;16.80;;;15.27;;
40867;SDS011;26586;50.708;22.412;2023-12-29T05:38:31;47.90;;;35.80;;
40867;SDS011;26586;50.708;22.412;2023-12-29T05:40:57;64.93;;;51.97;;
40867;SDS011;26586;50.708;22.412;2023-12-29T05:43:23;42.57;;;37.37;;
40867;SDS011;26586;50.708;22.412;2023-12-29T05:45:49;62.17;;;45.78;;
40867;SDS011;26586;50.708;22.412;2023-12-29T05:48:15;38.37;;;29.03;;
40867;SDS011;26586;50.708;22.412;2023-12-29T05:50:41;47.53;;;39.60;;
40867;SDS011;26586;50.708;22.412;2023-12-29T05:53:08;68.37;;;57.20;;
40867;SDS011;26586;50.708;22.412;2023-12-29T05:55:34;79.13;;;58.83;;
40867;SDS011;26586;50.708;22.412;2023-12-29T05:58:00;68.55;;;55.30;;
40867;SDS011;26586;50.708;22.412;2023-12-29T06:00:26;82.95;;;63.47;;
40867;SDS011;26586;50.708;22.412;2023-12-29T06:02:53;96.13;;;74.32;;
40867;SDS011;26586;50.708;22.412;2023-12-29T06:05:19;106.63;;;81.10;;
40867;SDS011;26586;50.708;22.412;2023-12-29T06:07:45;244.60;;;165.90;;
40867;SDS011;26586;50.708;22.412;2023-12-29T06:10:11;134.05;;;92.95;;
40867;SDS011;26586;50.708;22.412;2023-12-29T06:12:37;124.28;;;92.22;;
40867;SDS011;26586;50.708;22.412;2023-12-29T06:15:04;166.80;;;107.47;;
40867;SDS011;26586;50.708;22.412;2023-12-29T06:17:30;139.55;;;91.25;;
40867;SDS011;26586;50.708;22.412;2023-12-29T06:19:57;120.05;;;83.43;;
40867;SDS011;26586;50.708;22.412;2023-12-29T06:22:25;82.38;;;60.67;;
40867;SDS011;26586;50.708;22.412;2023-12-29T06:24:52;57.65;;;44.10;;
40867;SDS011;26586;50.708;22.412;2023-12-29T06:27:18;57.97;;;41.72;;
40867;SDS011;26586;50.708;22.412;2023-12-29T06:29:44;80.97;;;56.72;;
40867;SDS011;26586;50.708;22.412;2023-12-29T06:32:11;61.27;;;47.27;;
40867;SDS011;26586;50.708;22.412;2023-12-29T06:34:37;41.95;;;32.40;;
40867;SDS011;26586;50.708;22.412;2023-12-29T06:37:03;39.90;;;30.63;;
40867;SDS011;26586;50.708;22.412;2023-12-29T06:39:29;34.10;;;26.05;;
40867;SDS011;26586;50.708;22.412;2023-12-29T06:41:56;23.73;;;17.77;;
40867;SDS011;26586;50.708;22.412;2023-12-29T06:44:22;25.83;;;18.25;;
40867;SDS011;26586;50.708;22.412;2023-12-29T06:46:48;31.80;;;21.60;;
40867;SDS011;26586;50.708;22.412;2023-12-29T06:49:14;24.10;;;16.90;;
40867;SDS011;26586;50.708;22.412;2023-12-29T06:51:40;32.17;;;22.95;;
40867;SDS011;26586;50.708;22.412;2023-12-29T06:54:06;25.55;;;19.55;;
40867;SDS011;26586;50.708;22.412;2023-12-29T06:56:33;20.35;;;16.00;;
40867;SDS011;26586;50.708;22.412;2023-12-29T06:58:59;25.05;;;17.25;;
40867;SDS011;26586;50.708;22.412;2023-12-29T07:01:25;34.03;;;21.92;;
40867;SDS011;26586;50.708;22.412;2023-12-29T07:03:51;31.45;;;21.77;;
40867;SDS011;26586;50.708;22.412;2023-12-29T07:06:18;24.17;;;16.87;;
40867;SDS011;26586;50.708;22.412;2023-12-29T07:08:44;22.38;;;16.45;;
40867;SDS011;26586;50.708;22.412;2023-12-29T07:11:10;28.65;;;21.95;;
40867;SDS011;26586;50.708;22.412;2023-12-29T07:13:37;19.15;;;15.52;;
40867;SDS011;26586;50.708;22.412;2023-12-29T07:16:04;13.15;;;11.82;;
40867;SDS011;26586;50.708;22.412;2023-12-29T07:18:30;13.57;;;12.27;;
40867;SDS011;26586;50.708;22.412;2023-12-29T07:20:57;14.33;;;12.97;;
40867;SDS011;26586;50.708;22.412;2023-12-29T07:23:23;12.13;;;11.02;;
40867;SDS011;26586;50.708;22.412;2023-12-29T07:25:49;9.60;;;8.70;;
40867;SDS011;26586;50.708;22.412;2023-12-29T07:28:15;11.30;;;10.20;;
40867;SDS011;26586;50.708;22.412;2023-12-29T07:30:42;9.07;;;8.13;;
40867;SDS011;26586;50.708;22.412;2023-12-29T07:33:08;8.32;;;7.40;;
40867;SDS011;26586;50.708;22.412;2023-12-29T07:35:34;8.88;;;7.75;;
40867;SDS011;26586;50.708;22.412;2023-12-29T07:38:00;8.98;;;7.95;;
40867;SDS011;26586;50.708;22.412;2023-12-29T07:40:27;11.10;;;8.98;;
40867;SDS011;26586;50.708;22.412;2023-12-29T07:42:53;9.23;;;8.32;;
40867;SDS011;26586;50.708;22.412;2023-12-29T07:45:19;8.43;;;7.63;;
40867;SDS011;26586;50.708;22.412;2023-12-29T07:47:45;9.13;;;8.30;;
40867;SDS011;26586;50.708;22.412;2023-12-29T07:50:11;9.55;;;8.45;;
40867;SDS011;26586;50.708;22.412;2023-12-29T07:52:37;8.35;;;7.53;;
40867;SDS011;26586;50.708;22.412;2023-12-29T07:55:04;8.75;;;7.93;;
40867;SDS011;26586;50.708;22.412;2023-12-29T07:57:30;8.27;;;7.40;;
40867;SDS011;26586;50.708;22.412;2023-12-29T07:59:56;7.37;;;6.63;;
40867;SDS011;26586;50.708;22.412;2023-12-29T08:02:23;8.20;;;7.05;;
40867;SDS011;26586;50.708;22.412;2023-12-29T08:04:49;7.60;;;6.90;;
40867;SDS011;26586;50.708;22.412;2023-12-29T08:07:15;13.88;;;12.68;;
40867;SDS011;26586;50.708;22.412;2023-12-29T08:09:41;9.98;;;8.98;;
40867;SDS011;26586;50.708;22.412;2023-12-29T08:12:08;9.13;;;8.23;;
40867;SDS011;26586;50.708;22.412;2023-12-29T08:14:34;9.27;;;8.02;;
40867;SDS011;26586;50.708;22.412;2023-12-29T08:17:00;9.98;;;8.70;;
40867;SDS011;26586;50.708;22.412;2023-12-29T08:19:26;9.63;;;8.32;;
40867;SDS011;26586;50.708;22.412;2023-12-29T08:21:52;11.75;;;8.07;;
40867;SDS011;26586;50.708;22.412;2023-12-29T08:24:19;9.33;;;8.07;;
40867;SDS011;26586;50.708;22.412;2023-12-29T08:26:46;9.50;;;8.32;;
40867;SDS011;26586;50.708;22.412;2023-12-29T08:29:13;10.45;;;9.00;;
40867;SDS011;26586;50.708;22.412;2023-12-29T08:31:39;9.93;;;8.55;;
40867;SDS011;26586;50.708;22.412;2023-12-29T08:34:07;11.32;;;10.00;;
40867;SDS011;26586;50.708;22.412;2023-12-29T08:36:33;10.65;;;9.20;;
40867;SDS011;26586;50.708;22.412;2023-12-29T08:38:59;12.80;;;11.35;;
40867;SDS011;26586;50.708;22.412;2023-12-29T08:41:25;13.18;;;11.55;;
40867;SDS011;26586;50.708;22.412;2023-12-29T08:43:52;12.80;;;10.43;;
40867;SDS011;26586;50.708;22.412;2023-12-29T08:46:18;13.48;;;11.07;;
40867;SDS011;26586;50.708;22.412;2023-12-29T08:48:45;13.52;;;10.38;;
40867;SDS011;26586;50.708;22.412;2023-12-29T08:51:12;15.05;;;12.40;;
40867;SDS011;26586;50.708;22.412;2023-12-29T08:53:38;15.13;;;12.05;;
40867;SDS011;26586;50.708;22.412;2023-12-29T08:56:04;16.45;;;12.35;;
40867;SDS011;26586;50.708;22.412;2023-12-29T08:58:31;14.23;;;11.95;;
40867;SDS011;26586;50.708;22.412;2023-12-29T09:00:57;13.70;;;10.82;;
40867;SDS011;26586;50.708;22.412;2023-12-29T09:03:24;14.73;;;11.75;;
40867;SDS011;26586;50.708;22.412;2023-12-29T09:05:50;14.30;;;12.23;;
40867;SDS011;26586;50.708;22.412;2023-12-29T09:08:16;13.38;;;10.75;;
40867;SDS011;26586;50.708;22.412;2023-12-29T09:10:42;9.80;;;8.48;;
40867;SDS011;26586;50.708;22.412;2023-12-29T09:13:08;10.18;;;8.52;;
40867;SDS011;26586;50.708;22.412;2023-12-29T09:15:35;10.60;;;8.20;;
40867;SDS011;26586;50.708;22.412;2023-12-29T09:18:01;9.85;;;8.02;;
40867;SDS011;26586;50.708;22.412;2023-12-29T09:20:27;9.82;;;8.25;;
40867;SDS011;26586;50.708;22.412;2023-12-29T09:22:53;9.55;;;7.72;;
40867;SDS011;26586;50.708;22.412;2023-12-29T09:27:47;9.05;;;7.22;;
40867;SDS011;26586;50.708;22.412;2023-12-29T09:30:14;8.52;;;7.35;;
40867;SDS011;26586;50.708;22.412;2023-12-29T09:32:41;7.95;;;7.10;;
40867;SDS011;26586;50.708;22.412;2023-12-29T09:35:07;7.65;;;6.85;;
40867;SDS011;26586;50.708;22.412;2023-12-29T09:37:33;8.18;;;6.65;;
40867;SDS011;26586;50.708;22.412;2023-12-29T09:39:59;8.35;;;7.13;;
40867;SDS011;26586;50.708;22.412;2023-12-29T09:42:26;7.75;;;6.78;;
40867;SDS011;26586;50.708;22.412;2023-12-29T09:44:55;7.60;;;6.57;;
40867;SDS011;26586;50.708;22.412;2023-12-29T09:47:22;7.47;;;6.68;;
40867;SDS011;26586;50.708;22.412;2023-12-29T09:49:49;6.47;;;5.88;;
40867;SDS011;26586;50.708;22.412;2023-12-29T09:52:19;6.30;;;5.70;;
40867;SDS011;26586;50.708;22.412;2023-12-29T09:54:51;7.05;;;5.90;;
40867;SDS011;26586;50.708;22.412;2023-12-29T09:57:18;7.10;;;6.40;;
40867;SDS011;26586;50.708;22.412;2023-12-29T09:59:45;8.40;;;6.15;;
40867;SDS011;26586;50.708;22.412;2023-12-29T10:02:14;6.38;;;5.55;;
40867;SDS011;26586;50.708;22.412;2023-12-29T10:04:43;7.88;;;6.78;;
40867;SDS011;26586;50.708;22.412;2023-12-29T10:07:11;8.40;;;7.60;;
40867;SDS011;26586;50.708;22.412;2023-12-29T10:09:44;9.73;;;8.18;;
40867;SDS011;26586;50.708;22.412;2023-12-29T10:12:14;11.10;;;9.23;;
40867;SDS011;26586;50.708;22.412;2023-12-29T10:23:11;9.38;;;7.80;;
40867;SDS011;26586;50.708;22.412;2023-12-29T10:25:43;8.82;;;7.47;;
40867;SDS011;26586;50.708;22.412;2023-12-29T10:28:10;9.95;;;8.80;;
40867;SDS011;26586;50.708;22.412;2023-12-29T10:30:36;10.32;;;9.07;;
40867;SDS011;26586;50.708;22.412;2023-12-29T10:33:03;15.07;;;12.98;;
40867;SDS011;26586;50.708;22.412;2023-12-29T10:35:30;11.60;;;10.32;;
40867;SDS011;26586;50.708;22.412;2023-12-29T10:40:36;9.38;;;7.80;;
40867;SDS011;26586;50.708;22.412;2023-12-29T10:43:02;7.60;;;6.80;;
40867;SDS011;26586;50.708;22.412;2023-12-29T10:45:32;8.80;;;7.82;;
40867;SDS011;26586;50.708;22.412;2023-12-29T10:48:02;10.00;;;7.70;;
40867;SDS011;26586;50.708;22.412;2023-12-29T10:50:28;9.75;;;7.68;;
40867;SDS011;26586;50.708;22.412;2023-12-29T10:53:10;8.30;;;6.45;;
40867;SDS011;26586;50.708;22.412;2023-12-29T10:55:38;8.70;;;7.20;;
40867;SDS011;26586;50.708;22.412;2023-12-29T10:58:05;7.53;;;6.30;;
40867;SDS011;26586;50.708;22.412;2023-12-29T11:00:32;8.48;;;6.57;;
40867;SDS011;26586;50.708;22.412;2023-12-29T11:02:58;9.88;;;7.50;;
40867;SDS011;26586;50.708;22.412;2023-12-29T11:05:25;14.85;;;11.13;;
40867;SDS011;26586;50.708;22.412;2023-12-29T11:07:53;17.75;;;14.45;;
40867;SDS011;26586;50.708;22.412;2023-12-29T11:10:20;14.02;;;11.25;;
40867;SDS011;26586;50.708;22.412;2023-12-29T11:12:48;14.48;;;10.80;;
40867;SDS011;26586;50.708;22.412;2023-12-29T11:15:15;14.80;;;11.27;;
40867;SDS011;26586;50.708;22.412;2023-12-29T11:17:42;11.85;;;9.60;;
40867;SDS011;26586;50.708;22.412;2023-12-29T11:20:14;11.05;;;8.88;;
40867;SDS011;26586;50.708;22.412;2023-12-29T11:22:42;13.55;;;10.13;;
40867;SDS011;26586;50.708;22.412;2023-12-29T11:25:09;12.75;;;9.52;;
40867;SDS011;26586;50.708;22.412;2023-12-29T11:27:37;10.40;;;8.18;;
40867;SDS011;26586;50.708;22.412;2023-12-29T11:30:04;11.35;;;9.30;;
40867;SDS011;26586;50.708;22.412;2023-12-29T11:32:37;11.65;;;9.35;;
40867;SDS011;26586;50.708;22.412;2023-12-29T11:35:30;11.25;;;8.35;;
40867;SDS011;26586;50.708;22.412;2023-12-29T11:43:57;8.25;;;6.50;;
40867;SDS011;26586;50.708;22.412;2023-12-29T11:49:10;10.40;;;6.85;;
40867;SDS011;26586;50.708;22.412;2023-12-29T11:51:39;9.18;;;7.28;;
40867;SDS011;26586;50.708;22.412;2023-12-29T11:54:07;7.70;;;6.57;;
40867;SDS011;26586;50.708;22.412;2023-12-29T11:56:34;8.00;;;6.07;;
40867;SDS011;26586;50.708;22.412;2023-12-29T11:59:18;7.15;;;6.45;;
40867;SDS011;26586;50.708;22.412;2023-12-29T12:01:46;7.53;;;6.50;;
40867;SDS011;26586;50.708;22.412;2023-12-29T12:09:39;6.75;;;6.05;;
40867;SDS011;26586;50.708;22.412;2023-12-29T12:12:05;7.22;;;6.45;;
40867;SDS011;26586;50.708;22.412;2023-12-29T12:14:53;6.18;;;5.50;;
40867;SDS011;26586;50.708;22.412;2023-12-29T12:20:08;7.07;;;5.43;;
40867;SDS011;26586;50.708;22.412;2023-12-29T12:22:35;8.07;;;5.90;;
40867;SDS011;26586;50.708;22.412;2023-12-29T12:27:28;7.57;;;5.95;;
40867;SDS011;26586;50.708;22.412;2023-12-29T12:29:57;7.88;;;6.03;;
40867;SDS011;26586;50.708;22.412;2023-12-29T12:32:26;7.07;;;6.18;;
40867;SDS011;26586;50.708;22.412;2023-12-29T12:34:52;7.55;;;6.38;;
40867;SDS011;26586;50.708;22.412;2023-12-29T12:37:23;7.75;;;6.63;;
40867;SDS011;26586;50.708;22.412;2023-12-29T12:39:53;8.60;;;6.93;;
40867;SDS011;26586;50.708;22.412;2023-12-29T12:42:19;6.35;;;5.70;;
40867;SDS011;26586;50.708;22.412;2023-12-29T12:44:53;7.32;;;6.20;;
40867;SDS011;26586;50.708;22.412;2023-12-29T12:47:26;7.18;;;6.20;;
40867;SDS011;26586;50.708;22.412;2023-12-29T12:49:58;5.80;;;5.20;;
40867;SDS011;26586;50.708;22.412;2023-12-29T12:52:25;6.25;;;5.57;;
40867;SDS011;26586;50.708;22.412;2023-12-29T12:54:55;6.72;;;5.50;;
40867;SDS011;26586;50.708;22.412;2023-12-29T12:57:22;7.18;;;5.95;;
40867;SDS011;26586;50.708;22.412;2023-12-29T12:59:48;9.77;;;6.55;;
40867;SDS011;26586;50.708;22.412;2023-12-29T13:02:16;15.48;;;10.25;;
40867;SDS011;26586;50.708;22.412;2023-12-29T13:04:45;23.92;;;15.20;;
40867;SDS011;26586;50.708;22.412;2023-12-29T13:07:14;22.13;;;12.88;;
40867;SDS011;26586;50.708;22.412;2023-12-29T13:09:42;25.15;;;13.43;;
40867;SDS011;26586;50.708;22.412;2023-12-29T13:12:12;23.48;;;12.02;;
40867;SDS011;26586;50.708;22.412;2023-12-29T13:14:39;19.60;;;11.40;;
40867;SDS011;26586;50.708;22.412;2023-12-29T13:17:09;16.73;;;11.13;;
40867;SDS011;26586;50.708;22.412;2023-12-29T13:19:36;17.00;;;12.05;;
40867;SDS011;26586;50.708;22.412;2023-12-29T13:22:05;16.85;;;11.82;;
40867;SDS011;26586;50.708;22.412;2023-12-29T13:24:34;16.83;;;10.75;;
40867;SDS011;26586;50.708;22.412;2023-12-29T13:27:05;18.45;;;11.43;;
40867;SDS011;26586;50.708;22.412;2023-12-29T13:29:33;16.33;;;11.57;;
40867;SDS011;26586;50.708;22.412;2023-12-29T13:32:06;15.45;;;10.63;;
40867;SDS011;26586;50.708;22.412;2023-12-29T13:34:45;15.43;;;10.82;;
40867;SDS011;26586;50.708;22.412;2023-12-29T13:39:44;10.80;;;9.15;;
40867;SDS011;26586;50.708;22.412;2023-12-29T13:42:20;8.93;;;7.28;;
40867;SDS011;26586;50.708;22.412;2023-12-29T13:44:48;10.23;;;7.55;;
40867;SDS011;26586;50.708;22.412;2023-12-29T13:49:42;9.52;;;7.28;;
40867;SDS011;26586;50.708;22.412;2023-12-29T13:52:08;12.65;;;9.15;;
40867;SDS011;26586;50.708;22.412;2023-12-29T13:54:41;13.30;;;9.93;;
40867;SDS011;26586;50.708;22.412;2023-12-29T13:57:08;10.25;;;8.20;;
40867;SDS011;26586;50.708;22.412;2023-12-29T13:59:35;8.88;;;7.10;;
40867;SDS011;26586;50.708;22.412;2023-12-29T14:02:22;7.95;;;6.32;;
40867;SDS011;26586;50.708;22.412;2023-12-29T14:13:05;8.43;;;7.30;;
40867;SDS011;26586;50.708;22.412;2023-12-29T14:15:35;8.20;;;7.25;;
40867;SDS011;26586;50.708;22.412;2023-12-29T14:20:37;10.50;;;8.68;;
40867;SDS011;26586;50.708;22.412;2023-12-29T14:23:05;13.52;;;10.45;;
40867;SDS011;26586;50.708;22.412;2023-12-29T14:25:35;16.38;;;12.35;;
40867;SDS011;26586;50.708;22.412;2023-12-29T14:28:03;21.42;;;17.55;;
40867;SDS011;26586;50.708;22.412;2023-12-29T14:30:39;28.00;;;22.13;;
40867;SDS011;26586;50.708;22.412;2023-12-29T14:33:05;32.83;;;24.15;;
40867;SDS011;26586;50.708;22.412;2023-12-29T14:37:59;33.70;;;22.98;;
40867;SDS011;26586;50.708;22.412;2023-12-29T14:40:25;34.72;;;22.42;;
40867;SDS011;26586;50.708;22.412;2023-12-29T14:42:52;33.53;;;23.60;;
40867;SDS011;26586;50.708;22.412;2023-12-29T14:45:18;41.95;;;27.38;;
40867;SDS011;26586;50.708;22.412;2023-12-29T14:47:45;49.75;;;29.92;;
40867;SDS011;26586;50.708;22.412;2023-12-29T14:50:12;42.30;;;26.63;;
40867;SDS011;26586;50.708;22.412;2023-12-29T14:52:38;46.22;;;26.70;;
40867;SDS011;26586;50.708;22.412;2023-12-29T14:55:04;56.63;;;32.97;;
40867;SDS011;26586;50.708;22.412;2023-12-29T14:57:31;45.30;;;28.35;;
40867;SDS011;26586;50.708;22.412;2023-12-29T14:59:57;47.22;;;30.40;;
40867;SDS011;26586;50.708;22.412;2023-12-29T15:02:23;54.80;;;38.50;;
40867;SDS011;26586;50.708;22.412;2023-12-29T15:04:49;54.45;;;42.78;;
40867;SDS011;26586;50.708;22.412;2023-12-29T15:07:16;58.25;;;43.47;;
40867;SDS011;26586;50.708;22.412;2023-12-29T15:12:09;59.75;;;43.58;;
40867;SDS011;26586;50.708;22.412;2023-12-29T15:14:35;58.20;;;40.95;;
40867;SDS011;26586;50.708;22.412;2023-12-29T15:17:02;53.55;;;40.33;;
40867;SDS011;26586;50.708;22.412;2023-12-29T15:19:28;50.47;;;43.10;;
40867;SDS011;26586;50.708;22.412;2023-12-29T15:21:54;40.58;;;34.60;;